Time;durP1;ratioP1;P1;durP2;ratioP2;P2;SDS_P1;SDS_P2;PMS_P1;PMS_P2;Temp;Humidity;BMP_temperature;BMP_pressure;BME280_temperature;BME280_humidity;BME280_pressure;Samples;Min_cycle;Max_cycle;Signal;HPM_P1;HPM_P2
2024/04/21 00:00:38;;;;;;;16.90;8.73;;;;;;;;;;5273398;27;20010;-76
2024/04/21 00:03:04;;;;;;;17.60;9.87;;;;;;;;;;5290934;27;20006;-74
2024/04/21 00:05:30;;;;;;;14.63;9.47;;;;;;;;;;5276633;27;20079;-75
2024/04/21 00:07:55;;;;;;;17.83;9.40;;;;;;;;;;5276272;27;20036;-75
2024/04/21 00:10:21;;;;;;;17.07;10.07;;;;;;;;;;5306808;27;20002;-75
2024/04/21 00:12:46;;;;;;;19.57;10.10;;;;;;;;;;5276521;27;20017;-75
2024/04/21 00:15:12;;;;;;;18.73;9.37;;;;;;;;;;5276846;27;20002;-76
2024/04/21 00:17:37;;;;;;;16.37;9.30;;;;;;;;;;5276770;27;20438;-75
2024/04/21 00:20:04;;;;;;;21.53;10.27;;;;;;;;;;5276817;27;20438;-75
2024/04/21 00:22:30;;;;;;;20.23;9.73;;;;;;;;;;5248180;27;19999;-75
2024/04/21 00:24:56;;;;;;;21.00;10.37;;;;;;;;;;5241928;27;20133;-75
2024/04/21 00:27:21;;;;;;;17.77;9.60;;;;;;;;;;5272905;27;20025;-75
2024/04/21 00:29:47;;;;;;;18.70;10.07;;;;;;;;;;5242628;27;20017;-75
2024/04/21 00:32:12;;;;;;;17.23;9.87;;;;;;;;;;5242929;27;20108;-76
2024/04/21 00:34:38;;;;;;;18.83;10.57;;;;;;;;;;5242544;27;20006;-75
2024/04/21 00:37:04;;;;;;;21.73;10.20;;;;;;;;;;5242624;27;20105;-75
2024/04/21 00:39:30;;;;;;;20.47;11.43;;;;;;;;;;5242807;27;20011;-75
2024/04/21 00:41:55;;;;;;;17.10;9.13;;;;;;;;;;5242650;27;20361;-75
2024/04/21 00:44:21;;;;;;;18.23;9.40;;;;;;;;;;5243002;27;20010;-76
2024/04/21 00:46:46;;;;;;;18.47;10.07;;;;;;;;;;5272530;27;20017;-75
2024/04/21 00:49:13;;;;;;;16.40;9.10;;;;;;;;;;5242703;27;20453;-74
2024/04/21 00:51:40;;;;;;;18.23;9.93;;;;;;;;;;5241801;27;20003;-75
2024/04/21 00:54:07;;;;;;;15.53;8.77;;;;;;;;;;5242706;27;20054;-75
2024/04/21 00:56:35;;;;;;;17.30;9.47;;;;;;;;;;5242464;27;20013;-76
2024/04/21 00:59:01;;;;;;;18.73;8.90;;;;;;;;;;5242293;27;19998;-76
2024/04/21 01:01:27;;;;;;;18.73;9.43;;;;;;;;;;5242436;27;20017;-76
2024/04/21 01:03:52;;;;;;;16.87;9.27;;;;;;;;;;5272266;27;20073;-75
2024/04/21 01:06:21;;;;;;;18.77;9.37;;;;;;;;;;5242494;27;20022;-75
2024/04/21 01:08:47;;;;;;;19.70;9.37;;;;;;;;;;5242363;27;20443;-75
2024/04/21 01:11:19;;;;;;;18.57;8.63;;;;;;;;;;5242717;27;20006;-75
2024/04/21 01:13:45;;;;;;;16.97;8.50;;;;;;;;;;5242130;27;20006;-75
2024/04/21 01:16:12;;;;;;;15.47;8.80;;;;;;;;;;5272160;27;20125;-75
2024/04/21 01:18:38;;;;;;;16.77;9.17;;;;;;;;;;5272062;27;20042;-76
2024/04/21 01:21:04;;;;;;;15.27;8.97;;;;;;;;;;5241956;27;20002;-76
2024/04/21 01:23:30;;;;;;;17.30;9.43;;;;;;;;;;5214500;27;20058;-74
2024/04/21 01:25:55;;;;;;;14.23;8.37;;;;;;;;;;5241502;27;20043;-75
2024/04/21 01:28:21;;;;;;;14.67;7.87;;;;;;;;;;5271473;27;20013;-76
2024/04/21 01:30:47;;;;;;;15.33;8.57;;;;;;;;;;5241722;27;20010;-75
2024/04/21 01:33:12;;;;;;;17.87;8.83;;;;;;;;;;5241621;27;20006;-76
2024/04/21 01:35:38;;;;;;;15.43;8.43;;;;;;;;;;5270362;27;20071;-75
2024/04/21 01:38:03;;;;;;;16.80;9.10;;;;;;;;;;5241188;27;19998;-75
2024/04/21 01:40:29;;;;;;;16.50;8.60;;;;;;;;;;5271379;27;19998;-75
2024/04/21 01:42:55;;;;;;;16.27;8.63;;;;;;;;;;5241489;27;20377;-75
2024/04/21 01:45:21;;;;;;;18.60;9.47;;;;;;;;;;5241390;27;20009;-75
2024/04/21 01:47:46;;;;;;;16.60;8.90;;;;;;;;;;5241213;27;20008;-74
2024/04/21 01:50:12;;;;;;;15.47;8.60;;;;;;;;;;5241506;27;20500;-76
2024/04/21 01:52:38;;;;;;;15.63;8.03;;;;;;;;;;5241041;27;20009;-75
2024/04/21 01:55:04;;;;;;;16.83;8.80;;;;;;;;;;5241424;27;20002;-75
2024/04/21 01:57:29;;;;;;;16.37;8.90;;;;;;;;;;5271660;27;20010;-76
2024/04/21 01:59:55;;;;;;;15.50;8.23;;;;;;;;;;5241517;27;20508;-75
2024/04/21 02:02:21;;;;;;;17.57;9.13;;;;;;;;;;5241634;27;20525;-75
2024/04/21 02:04:46;;;;;;;14.90;9.03;;;;;;;;;;5271020;27;20618;-76
2024/04/21 02:07:12;;;;;;;19.67;9.53;;;;;;;;;;5271772;27;20552;-75
2024/04/21 02:09:37;;;;;;;18.77;9.90;;;;;;;;;;5241674;27;20003;-74
2024/04/21 02:12:03;;;;;;;15.80;9.00;;;;;;;;;;5241296;27;20018;-75
2024/04/21 02:14:28;;;;;;;14.13;8.30;;;;;;;;;;5241504;27;20061;-75
2024/04/21 02:16:54;;;;;;;20.37;9.70;;;;;;;;;;5241137;27;20006;-75
2024/04/21 02:19:20;;;;;;;15.80;9.07;;;;;;;;;;5241322;27;20461;-75
2024/04/21 02:21:45;;;;;;;16.60;8.87;;;;;;;;;;5270945;27;20002;-74
2024/04/21 02:24:12;;;;;;;19.50;9.33;;;;;;;;;;5241057;27;20382;-74
2024/04/21 02:26:38;;;;;;;17.13;8.97;;;;;;;;;;5241207;27;19998;-75
2024/04/21 02:29:04;;;;;;;19.97;9.13;;;;;;;;;;5270530;27;20321;-75
2024/04/21 02:31:30;;;;;;;16.23;8.10;;;;;;;;;;5270749;27;19994;-75
2024/04/21 02:33:56;;;;;;;21.00;9.20;;;;;;;;;;5240551;27;20425;-73
2024/04/21 02:36:23;;;;;;;16.20;9.07;;;;;;;;;;5240761;27;20061;-75
2024/04/21 02:38:49;;;;;;;16.77;8.17;;;;;;;;;;5240054;27;20357;-74
2024/04/21 02:41:14;;;;;;;15.57;8.77;;;;;;;;;;5270707;27;20030;-74
2024/04/21 02:43:40;;;;;;;17.03;8.73;;;;;;;;;;5240776;27;19998;-75
2024/04/21 02:46:06;;;;;;;18.13;8.83;;;;;;;;;;5270426;27;19998;-75
2024/04/21 02:48:32;;;;;;;20.07;8.63;;;;;;;;;;5243944;27;20008;-75
2024/04/21 02:50:58;;;;;;;16.00;8.93;;;;;;;;;;5243442;27;19998;-75
2024/04/21 02:53:24;;;;;;;18.00;9.23;;;;;;;;;;5244235;27;20003;-75
2024/04/21 02:55:51;;;;;;;16.27;8.53;;;;;;;;;;5243837;27;20002;-75
2024/04/21 02:58:17;;;;;;;19.43;9.73;;;;;;;;;;5273607;27;20428;-73
2024/04/21 03:00:45;;;;;;;16.67;9.13;;;;;;;;;;5243745;27;20021;-75
2024/04/21 03:03:10;;;;;;;18.00;9.10;;;;;;;;;;5243796;27;20102;-75
2024/04/21 03:05:36;;;;;;;17.13;8.53;;;;;;;;;;5244100;27;20022;-75
2024/04/21 03:08:02;;;;;;;17.63;9.70;;;;;;;;;;5273560;27;20026;-75
2024/04/21 03:10:27;;;;;;;21.63;10.07;;;;;;;;;;5244113;27;20006;-75
2024/04/21 03:12:56;;;;;;;20.83;9.67;;;;;;;;;;5243575;27;20006;-76
2024/04/21 03:15:22;;;;;;;19.43;9.87;;;;;;;;;;5243481;27;20016;-75
2024/04/21 03:17:47;;;;;;;21.50;9.47;;;;;;;;;;5273308;27;20006;-73
2024/04/21 03:20:13;;;;;;;18.87;9.30;;;;;;;;;;5243689;27;20006;-74
2024/04/21 03:22:39;;;;;;;17.07;9.23;;;;;;;;;;5243832;27;20014;-74
2024/04/21 03:25:04;;;;;;;18.97;8.33;;;;;;;;;;5243536;27;20002;-75
2024/04/21 03:27:30;;;;;;;21.63;9.47;;;;;;;;;;5243864;27;20455;-75
2024/04/21 03:29:55;;;;;;;17.87;9.53;;;;;;;;;;5242904;27;20017;-75
2024/04/21 03:32:21;;;;;;;18.20;9.43;;;;;;;;;;5243709;27;20006;-74
2024/04/21 03:34:56;;;;;;;20.03;9.93;;;;;;;;;;5243793;27;20002;-74
2024/04/21 03:37:22;;;;;;;18.80;9.17;;;;;;;;;;5244131;27;20048;-76
2024/04/21 03:39:47;;;;;;;19.03;9.53;;;;;;;;;;5244023;27;20006;-76
2024/04/21 03:42:13;;;;;;;24.63;10.20;;;;;;;;;;5273887;27;20002;-75
2024/04/21 03:44:39;;;;;;;18.57;9.70;;;;;;;;;;5273667;27;20447;-75
2024/04/21 03:47:04;;;;;;;18.37;10.17;;;;;;;;;;5243461;27;20545;-76
2024/04/21 03:49:30;;;;;;;19.33;8.90;;;;;;;;;;5242729;27;20002;-74
2024/04/21 03:51:55;;;;;;;17.40;9.23;;;;;;;;;;5242210;27;20082;-77
2024/04/21 03:54:21;;;;;;;19.67;9.00;;;;;;;;;;5242895;27;20038;-74
2024/04/21 03:56:47;;;;;;;20.30;9.17;;;;;;;;;;5243222;27;20018;-76
2024/04/21 03:59:12;;;;;;;21.50;9.27;;;;;;;;;;5242269;27;20002;-75
2024/04/21 04:01:38;;;;;;;17.47;9.40;;;;;;;;;;5243106;27;20483;-75
2024/04/21 04:04:04;;;;;;;16.10;9.57;;;;;;;;;;5243130;27;20017;-75
2024/04/21 04:06:30;;;;;;;18.87;8.90;;;;;;;;;;5243118;27;20006;-76
2024/04/21 04:08:58;;;;;;;20.80;9.70;;;;;;;;;;5215128;27;19998;-74
2024/04/21 04:11:24;;;;;;;18.17;9.20;;;;;;;;;;5272856;27;20006;-74
2024/04/21 04:13:49;;;;;;;19.57;9.60;;;;;;;;;;5242442;27;20002;-74
2024/04/21 04:16:15;;;;;;;15.87;9.37;;;;;;;;;;5242908;27;20017;-75
2024/04/21 04:18:40;;;;;;;17.97;9.23;;;;;;;;;;5242995;27;20003;-75
2024/04/21 04:21:06;;;;;;;15.70;9.07;;;;;;;;;;5242591;27;20088;-75
2024/04/21 04:23:32;;;;;;;18.07;9.20;;;;;;;;;;5243116;27;20006;-75
2024/04/21 04:25:57;;;;;;;16.97;9.40;;;;;;;;;;5242621;27;20418;-75
2024/04/21 04:28:23;;;;;;;20.20;10.03;;;;;;;;;;5272943;27;20004;-74
2024/04/21 04:30:48;;;;;;;22.70;9.73;;;;;;;;;;5242470;27;20002;-76
2024/04/21 04:33:14;;;;;;;18.80;9.97;;;;;;;;;;5242513;27;20017;-75
2024/04/21 04:35:39;;;;;;;15.03;9.03;;;;;;;;;;5272148;27;20006;-75
2024/04/21 04:38:05;;;;;;;18.80;10.23;;;;;;;;;;5242230;27;20017;-75
2024/04/21 04:40:32;;;;;;;18.83;9.67;;;;;;;;;;5272162;27;20014;-75
2024/04/21 04:42:58;;;;;;;16.80;9.23;;;;;;;;;;5272294;27;20017;-74
2024/04/21 04:45:24;;;;;;;19.97;9.83;;;;;;;;;;5272747;27;19998;-74
2024/04/21 04:47:49;;;;;;;16.13;10.00;;;;;;;;;;5243214;27;20010;-74
2024/04/21 04:50:15;;;;;;;19.10;8.80;;;;;;;;;;5242056;27;20002;-73
2024/04/21 04:52:41;;;;;;;24.07;11.53;;;;;;;;;;5242528;27;20338;-75
2024/04/21 04:55:06;;;;;;;22.30;10.60;;;;;;;;;;5272174;27;19998;-76
2024/04/21 04:57:32;;;;;;;18.73;10.37;;;;;;;;;;5242280;27;20021;-76
2024/04/21 04:59:58;;;;;;;20.57;10.07;;;;;;;;;;5271768;27;20007;-76
2024/04/21 05:02:24;;;;;;;18.00;9.80;;;;;;;;;;5242402;27;20002;-75
2024/04/21 05:04:49;;;;;;;26.37;11.57;;;;;;;;;;5241850;27;20328;-75
2024/04/21 05:07:15;;;;;;;19.93;11.40;;;;;;;;;;5242041;27;20014;-75
2024/04/21 05:09:41;;;;;;;20.97;11.57;;;;;;;;;;5240996;27;20029;-75
2024/04/21 05:12:07;;;;;;;23.63;10.87;;;;;;;;;;5241762;27;20537;-75
2024/04/21 05:14:32;;;;;;;19.50;11.30;;;;;;;;;;5242069;27;20021;-74
2024/04/21 05:16:58;;;;;;;21.63;12.67;;;;;;;;;;5271933;27;20002;-75
2024/04/21 05:19:23;;;;;;;17.77;10.50;;;;;;;;;;5271681;27;20545;-75
2024/04/21 05:21:49;;;;;;;22.27;12.27;;;;;;;;;;5271476;27;20017;-75
2024/04/21 05:24:15;;;;;;;17.77;10.90;;;;;;;;;;5241778;27;20081;-74
2024/04/21 05:26:40;;;;;;;20.33;10.90;;;;;;;;;;5241675;27;20002;-74
2024/04/21 05:29:06;;;;;;;19.13;10.23;;;;;;;;;;5271304;27;20414;-73
2024/04/21 05:31:31;;;;;;;18.20;9.43;;;;;;;;;;5271093;27;20002;-74
2024/04/21 05:33:57;;;;;;;20.90;10.63;;;;;;;;;;5271395;27;20040;-74
2024/04/21 05:36:22;;;;;;;20.27;10.13;;;;;;;;;;5241380;27;20017;-74
2024/04/21 05:38:52;;;;;;;20.00;10.20;;;;;;;;;;5242147;27;20022;-74
2024/04/21 05:41:18;;;;;;;21.40;10.13;;;;;;;;;;5271779;27;20021;-75
2024/04/21 05:43:46;;;;;;;16.50;8.73;;;;;;;;;;5242001;27;20010;-75
2024/04/21 05:46:11;;;;;;;16.17;7.87;;;;;;;;;;5241108;27;20010;-75
2024/04/21 05:48:37;;;;;;;15.17;8.73;;;;;;;;;;5241310;27;20310;-74
2024/04/21 05:51:03;;;;;;;14.00;7.03;;;;;;;;;;5240529;27;20006;-75
2024/04/21 05:53:31;;;;;;;15.37;7.53;;;;;;;;;;5271524;27;20040;-75
2024/04/21 05:55:57;;;;;;;15.63;7.47;;;;;;;;;;5271263;27;20311;-74
2024/04/21 05:58:22;;;;;;;14.47;7.53;;;;;;;;;;5271251;27;20018;-76
2024/04/21 06:00:48;;;;;;;9.97;6.03;;;;;;;;;;5271491;27;20007;-75
2024/04/21 06:03:13;;;;;;;11.43;6.97;;;;;;;;;;5271490;27;20017;-75
2024/04/21 06:05:39;;;;;;;9.37;6.23;;;;;;;;;;5241608;27;20038;-75
2024/04/21 06:08:04;;;;;;;10.33;5.97;;;;;;;;;;5271218;27;20054;-75
2024/04/21 06:10:30;;;;;;;8.93;5.17;;;;;;;;;;5240892;27;20003;-76
2024/04/21 06:12:56;;;;;;;10.80;5.67;;;;;;;;;;5270970;27;20034;-75
2024/04/21 06:15:21;;;;;;;9.70;4.87;;;;;;;;;;5241088;27;20018;-76
2024/04/21 06:17:47;;;;;;;7.20;3.90;;;;;;;;;;5240791;27;20043;-75
2024/04/21 06:20:13;;;;;;;11.43;4.80;;;;;;;;;;5240798;27;20002;-76
2024/04/21 06:22:38;;;;;;;5.73;4.00;;;;;;;;;;5243272;27;20435;-76
2024/04/21 06:25:05;;;;;;;6.20;4.00;;;;;;;;;;5244220;27;20007;-75
2024/04/21 06:27:30;;;;;;;8.17;4.17;;;;;;;;;;5244259;27;20014;-75
2024/04/21 06:29:57;;;;;;;6.17;3.93;;;;;;;;;;5274130;27;20405;-76
2024/04/21 06:32:23;;;;;;;6.90;3.83;;;;;;;;;;5244557;27;20006;-75
2024/04/21 06:34:48;;;;;;;5.43;3.73;;;;;;;;;;5244567;27;20190;-75
2024/04/21 06:37:14;;;;;;;5.67;3.10;;;;;;;;;;5243551;27;20014;-74
2024/04/21 06:39:39;;;;;;;9.43;3.90;;;;;;;;;;5273584;27;19998;-76
2024/04/21 06:42:05;;;;;;;7.23;3.20;;;;;;;;;;5273599;27;20013;-75
2024/04/21 06:44:31;;;;;;;7.03;4.20;;;;;;;;;;5274045;27;20006;-76
2024/04/21 06:46:56;;;;;;;9.93;6.03;;;;;;;;;;5243876;27;20081;-77
2024/04/21 06:49:22;;;;;;;5.90;3.83;;;;;;;;;;5273946;27;20002;-76
2024/04/21 06:51:47;;;;;;;6.70;3.63;;;;;;;;;;5273924;27;20378;-75
2024/04/21 06:54:14;;;;;;;6.03;3.33;;;;;;;;;;5274201;27;20375;-75
2024/04/21 06:56:41;;;;;;;6.80;3.27;;;;;;;;;;5244817;27;20080;-76
2024/04/21 06:59:07;;;;;;;5.03;2.87;;;;;;;;;;5244371;27;20003;-76
2024/04/21 07:01:33;;;;;;;4.30;2.90;;;;;;;;;;5244635;27;20073;-77
2024/04/21 07:03:58;;;;;;;3.37;2.43;;;;;;;;;;5244722;27;20013;-75
2024/04/21 07:06:24;;;;;;;3.70;2.20;;;;;;;;;;5273630;27;20021;-76
2024/04/21 07:08:49;;;;;;;3.60;2.40;;;;;;;;;;5274614;27;20489;-76
2024/04/21 07:11:15;;;;;;;4.47;2.33;;;;;;;;;;5244515;27;19998;-77
2024/04/21 07:13:41;;;;;;;2.87;2.07;;;;;;;;;;5217272;27;20006;-77
2024/04/21 07:16:08;;;;;;;7.07;2.47;;;;;;;;;;5274324;27;20014;-76
2024/04/21 07:18:34;;;;;;;5.27;2.83;;;;;;;;;;5245108;27;20390;-76
2024/04/21 07:20:59;;;;;;;4.17;2.43;;;;;;;;;;5244117;27;20386;-76
2024/04/21 07:23:25;;;;;;;3.57;1.93;;;;;;;;;;5243959;27;20002;-76
2024/04/21 07:25:50;;;;;;;5.07;2.57;;;;;;;;;;5273523;27;20006;-75
2024/04/21 07:28:16;;;;;;;3.27;2.37;;;;;;;;;;5273149;27;20017;-75
2024/04/21 07:30:41;;;;;;;3.47;2.23;;;;;;;;;;5243469;27;20054;-75
2024/04/21 07:33:07;;;;;;;7.43;2.63;;;;;;;;;;5241982;27;20002;-75
2024/04/21 07:35:32;;;;;;;5.63;2.40;;;;;;;;;;5273331;27;20002;-75
2024/04/21 07:37:58;;;;;;;5.63;2.70;;;;;;;;;;5242754;27;20010;-74
2024/04/21 07:40:24;;;;;;;4.27;2.80;;;;;;;;;;5273149;27;20007;-75
2024/04/21 07:42:49;;;;;;;5.13;3.20;;;;;;;;;;5243562;27;20003;-75
2024/04/21 07:45:15;;;;;;;3.97;2.67;;;;;;;;;;5273270;27;20006;-75
2024/04/21 07:47:41;;;;;;;6.20;2.93;;;;;;;;;;5243823;27;20006;-75
2024/04/21 07:50:07;;;;;;;3.87;2.50;;;;;;;;;;5272840;27;20023;-76
2024/04/21 07:52:34;;;;;;;6.97;2.60;;;;;;;;;;5237749;27;20439;-76
2024/04/21 07:54:59;;;;;;;3.23;2.10;;;;;;;;;;5238212;27;20071;-75
2024/04/21 07:57:25;;;;;;;6.77;3.00;;;;;;;;;;5237106;27;20003;-76
2024/04/21 07:59:50;;;;;;;3.53;2.50;;;;;;;;;;5239706;27;20007;-76
2024/04/21 08:02:16;;;;;;;5.75;4.82;;;;;;;;;;5237494;27;20022;-75
2024/04/21 08:04:42;;;;;;;3.83;2.57;;;;;;;;;;5237589;27;20421;-76
2024/04/21 08:07:09;;;;;;;3.67;2.70;;;;;;;;;;5238653;27;20007;-76
2024/04/21 08:09:35;;;;;;;4.13;3.05;;;;;;;;;;5239429;27;20383;-76
2024/04/21 08:12:01;;;;;;;5.65;2.20;;;;;;;;;;5237351;27;20126;-75
2024/04/21 08:14:27;;;;;;;5.93;3.00;;;;;;;;;;5237575;27;20540;-76
2024/04/21 08:16:53;;;;;;;4.47;2.83;;;;;;;;;;5239159;27;20003;-75
2024/04/21 08:19:19;;;;;;;3.05;2.47;;;;;;;;;;5238577;27;20025;-75
2024/04/21 08:21:46;;;;;;;5.28;2.55;;;;;;;;;;5219956;27;20460;-76
2024/04/21 08:24:11;;;;;;;4.22;3.13;;;;;;;;;;5205390;27;20488;-75
2024/04/21 08:26:37;;;;;;;5.50;3.28;;;;;;;;;;5205931;27;20008;-74
2024/04/21 08:29:03;;;;;;;3.03;2.25;;;;;;;;;;5203475;27;20019;-75
2024/04/21 08:31:28;;;;;;;6.95;2.55;;;;;;;;;;5205165;27;20019;-75
2024/04/21 08:33:54;;;;;;;4.22;2.47;;;;;;;;;;5203558;27;20011;-75
2024/04/21 08:36:19;;;;;;;2.78;2.35;;;;;;;;;;5205174;27;20010;-76
2024/04/21 08:38:45;;;;;;;4.82;3.05;;;;;;;;;;5203623;27;20011;-76
2024/04/21 08:41:16;;;;;;;5.55;3.67;;;;;;;;;;5205214;27;19999;-76
2024/04/21 08:43:42;;;;;;;7.43;3.05;;;;;;;;;;5202773;27;20014;-76
2024/04/21 08:46:09;;;;;;;6.22;3.17;;;;;;;;;;5175177;27;20015;-76
2024/04/21 08:48:34;;;;;;;5.28;3.08;;;;;;;;;;5203739;27;20405;-76
2024/04/21 08:51:02;;;;;;;5.15;2.83;;;;;;;;;;5208091;27;20003;-77
2024/04/21 08:53:28;;;;;;;5.13;2.63;;;;;;;;;;5242251;27;20072;-77
2024/04/21 08:55:58;;;;;;;5.47;2.70;;;;;;;;;;5242086;27;20338;-77
2024/04/21 08:58:25;;;;;;;6.43;2.85;;;;;;;;;;5241815;27;20009;-76
2024/04/21 09:00:51;;;;;;;6.45;3.10;;;;;;;;;;5242080;27;19998;-75
2024/04/21 09:03:16;;;;;;;3.63;2.70;;;;;;;;;;5242010;27;20315;-76
2024/04/21 09:05:42;;;;;;;3.03;2.30;;;;;;;;;;5246971;27;20048;-76
2024/04/21 09:08:08;;;;;;;3.90;2.60;;;;;;;;;;5276012;27;20012;-75
2024/04/21 09:10:35;;;;;;;5.57;2.85;;;;;;;;;;5275712;27;20017;-75
2024/04/21 09:13:02;;;;;;;6.33;3.53;;;;;;;;;;5275761;27;19997;-75
2024/04/21 09:15:30;;;;;;;5.10;3.70;;;;;;;;;;5306617;27;20442;-78
2024/04/21 09:17:56;;;;;;;3.83;2.83;;;;;;;;;;5307153;27;20394;-76
2024/04/21 09:20:21;;;;;;;6.65;3.22;;;;;;;;;;5275803;27;20337;-75
2024/04/21 09:22:47;;;;;;;3.83;2.83;;;;;;;;;;5244649;27;20030;-76
2024/04/21 09:25:13;;;;;;;6.22;3.25;;;;;;;;;;5241589;27;20544;-76
2024/04/21 09:27:38;;;;;;;6.78;3.15;;;;;;;;;;5241642;27;20037;-76
2024/04/21 09:30:04;;;;;;;4.53;3.13;;;;;;;;;;5271834;27;20031;-76
2024/04/21 09:32:30;;;;;;;7.07;3.30;;;;;;;;;;5271346;27;19998;-76
2024/04/21 09:34:57;;;;;;;3.38;2.75;;;;;;;;;;5241951;27;20268;-75
2024/04/21 09:37:23;;;;;;;3.83;2.80;;;;;;;;;;5271832;27;19998;-76
2024/04/21 09:39:50;;;;;;;6.13;3.42;;;;;;;;;;5213955;27;20014;-75
2024/04/21 09:42:17;;;;;;;6.45;3.45;;;;;;;;;;5241392;27;20016;-74
2024/04/21 09:44:44;;;;;;;6.95;3.33;;;;;;;;;;5241771;27;20075;-77
2024/04/21 09:47:15;;;;;;;4.88;3.30;;;;;;;;;;5271109;27;20025;-76
2024/04/21 09:49:45;;;;;;;4.10;3.20;;;;;;;;;;5241526;27;20006;-76
2024/04/21 09:52:12;;;;;;;5.25;3.83;;;;;;;;;;5241621;27;20024;-76
2024/04/21 09:54:39;;;;;;;4.85;3.30;;;;;;;;;;5241570;27;20077;-74
2024/04/21 09:57:15;;;;;;;4.75;3.35;;;;;;;;;;5273818;27;20286;-75
2024/04/21 09:59:43;;;;;;;7.00;3.35;;;;;;;;;;5275828;27;20318;-76
2024/04/21 10:02:32;;;;;;;5.63;3.17;;;;;;;;;;5274761;27;20328;-75
2024/04/21 10:05:13;;;;;;;3.85;2.80;;;;;;;;;;5244718;27;20002;-76
2024/04/21 10:07:39;;;;;;;4.20;3.13;;;;;;;;;;5244588;27;20341;-74
2024/04/21 10:10:10;;;;;;;5.70;3.22;;;;;;;;;;5244748;27;20017;-77
2024/04/21 10:12:37;;;;;;;3.85;2.97;;;;;;;;;;5244671;27;20048;-76
2024/04/21 10:15:05;;;;;;;5.43;3.00;;;;;;;;;;5244510;27;20014;-76
2024/04/21 10:17:31;;;;;;;5.80;3.05;;;;;;;;;;5244690;27;20002;-74
2024/04/21 10:20:05;;;;;;;4.20;3.22;;;;;;;;;;5217017;27;20051;-76
2024/04/21 10:22:34;;;;;;;7.68;2.47;;;;;;;;;;5244287;27;20093;-76
2024/04/21 10:25:03;;;;;;;5.15;2.60;;;;;;;;;;5244677;27;19998;-76
2024/04/21 10:27:28;;;;;;;4.93;3.20;;;;;;;;;;5274254;27;20057;-75
2024/04/21 10:29:54;;;;;;;5.55;3.25;;;;;;;;;;5274581;27;20449;-78
2024/04/21 10:32:27;;;;;;;4.68;2.78;;;;;;;;;;5273635;27;20418;-75
2024/04/21 10:34:56;;;;;;;3.50;2.53;;;;;;;;;;5244404;27;20006;-76
2024/04/21 10:37:26;;;;;;;4.47;2.80;;;;;;;;;;5244744;27;20017;-76
2024/04/21 10:39:59;;;;;;;5.47;2.80;;;;;;;;;;5244972;27;20080;-75
2024/04/21 10:42:24;;;;;;;2.78;2.28;;;;;;;;;;5244867;27;20050;-77
2024/04/21 10:44:50;;;;;;;3.63;2.47;;;;;;;;;;5275565;27;20521;-76
2024/04/21 10:47:16;;;;;;;4.97;2.58;;;;;;;;;;5217530;27;20059;-76
2024/04/21 10:49:42;;;;;;;7.25;3.08;;;;;;;;;;5247833;27;20362;-79
2024/04/21 10:52:08;;;;;;;2.83;2.50;;;;;;;;;;5246813;27;20018;-75
2024/04/21 10:54:35;;;;;;;5.03;3.15;;;;;;;;;;5245222;27;20003;-76
2024/04/21 10:57:05;;;;;;;3.78;2.83;;;;;;;;;;5274750;27;20006;-76
2024/04/21 10:59:31;;;;;;;8.98;2.83;;;;;;;;;;5273820;27;20519;-75
2024/04/21 11:01:57;;;;;;;6.15;3.70;;;;;;;;;;5243341;27;20090;-76
2024/04/21 11:04:23;;;;;;;3.30;2.47;;;;;;;;;;5243399;27;20058;-76
2024/04/21 11:06:48;;;;;;;5.80;2.60;;;;;;;;;;5243278;27;20402;-76
2024/04/21 11:09:15;;;;;;;5.20;3.35;;;;;;;;;;5243277;27;20015;-77
2024/04/21 11:11:41;;;;;;;3.38;2.63;;;;;;;;;;5273507;27;20006;-76
2024/04/21 11:14:07;;;;;;;5.75;2.58;;;;;;;;;;5215898;27;20079;-74
2024/04/21 11:16:33;;;;;;;4.47;3.08;;;;;;;;;;5243621;27;20006;-77
2024/04/21 11:18:58;;;;;;;3.10;2.58;;;;;;;;;;5243729;27;20022;-76
2024/04/21 11:21:26;;;;;;;4.30;2.50;;;;;;;;;;5243925;27;20003;-74
2024/04/21 11:23:53;;;;;;;8.05;3.67;;;;;;;;;;5274890;27;20078;-74
2024/04/21 11:26:20;;;;;;;4.90;2.63;;;;;;;;;;5245034;27;20080;-76
2024/04/21 11:28:46;;;;;;;3.80;2.75;;;;;;;;;;5245144;27;20003;-75
2024/04/21 11:31:13;;;;;;;3.90;2.50;;;;;;;;;;5245352;27;20456;-76
2024/04/21 11:33:39;;;;;;;3.10;2.35;;;;;;;;;;5244122;27;20401;-75
2024/04/21 11:36:18;;;;;;;3.72;2.53;;;;;;;;;;5275184;27;20007;-73
2024/04/21 11:38:45;;;;;;;4.95;3.58;;;;;;;;;;5244318;27;20070;-75
2024/04/21 11:41:14;;;;;;;4.50;2.70;;;;;;;;;;5244871;27;20021;-76
2024/04/21 11:43:43;;;;;;;3.00;2.50;;;;;;;;;;5244762;27;20017;-77
2024/04/21 11:46:09;;;;;;;6.30;2.47;;;;;;;;;;5274912;27;20486;-75
2024/04/21 11:48:36;;;;;;;4.28;2.83;;;;;;;;;;5244348;27;20006;-74
2024/04/21 11:51:03;;;;;;;3.15;2.40;;;;;;;;;;5244269;27;20124;-74
2024/04/21 11:53:28;;;;;;;4.90;2.30;;;;;;;;;;5274678;27;20002;-74
2024/04/21 11:55:54;;;;;;;3.50;2.22;;;;;;;;;;5274560;27;20002;-76
2024/04/21 11:58:20;;;;;;;6.15;2.30;;;;;;;;;;5274056;27;20002;-74
2024/04/21 12:00:46;;;;;;;2.50;2.13;;;;;;;;;;5244550;27;20006;-75
2024/04/21 12:03:11;;;;;;;3.80;2.72;;;;;;;;;;5244541;27;20013;-73
2024/04/21 12:05:37;;;;;;;3.33;2.58;;;;;;;;;;5243542;27;20010;-73
2024/04/21 12:08:03;;;;;;;4.10;2.30;;;;;;;;;;5273290;27;20006;-76
2024/04/21 12:10:29;;;;;;;2.42;1.60;;;;;;;;;;5273879;27;20013;-76
2024/04/21 12:12:55;;;;;;;3.28;1.85;;;;;;;;;;5244805;27;20338;-75
2024/04/21 12:15:20;;;;;;;2.30;1.90;;;;;;;;;;5244077;27;19998;-74
2024/04/21 12:17:46;;;;;;;1.88;1.73;;;;;;;;;;5273945;27;20013;-74
2024/04/21 12:20:12;;;;;;;3.83;2.10;;;;;;;;;;5243814;27;20571;-74
2024/04/21 12:22:38;;;;;;;2.67;2.03;;;;;;;;;;5243362;27;20022;-74
2024/04/21 12:25:04;;;;;;;3.42;2.00;;;;;;;;;;5273595;27;19998;-74
2024/04/21 12:27:29;;;;;;;3.78;2.33;;;;;;;;;;5242940;27;20002;-75
2024/04/21 12:29:55;;;;;;;2.80;1.75;;;;;;;;;;5273522;27;20462;-74
2024/04/21 12:32:20;;;;;;;2.90;2.22;;;;;;;;;;5243760;27;20014;-75
2024/04/21 12:34:47;;;;;;;4.72;1.85;;;;;;;;;;5243570;27;20006;-75
2024/04/21 12:37:13;;;;;;;2.97;1.67;;;;;;;;;;5243962;27;20447;-74
2024/04/21 12:39:39;;;;;;;3.33;2.03;;;;;;;;;;5243687;27;20003;-74
2024/04/21 12:42:07;;;;;;;3.13;2.00;;;;;;;;;;5243558;27;19998;-74
2024/04/21 12:44:32;;;;;;;2.75;1.70;;;;;;;;;;5243064;27;20034;-74
2024/04/21 12:46:58;;;;;;;2.72;2.15;;;;;;;;;;5243799;27;20374;-75
2024/04/21 12:49:23;;;;;;;4.60;2.75;;;;;;;;;;5273875;27;19998;-74
2024/04/21 12:51:49;;;;;;;2.55;2.13;;;;;;;;;;5238400;27;20003;-76
2024/04/21 12:54:16;;;;;;;4.35;2.40;;;;;;;;;;5238920;27;20027;-75
2024/04/21 12:56:41;;;;;;;4.15;2.58;;;;;;;;;;5238200;27;20015;-74
2024/04/21 12:59:07;;;;;;;2.47;2.22;;;;;;;;;;5237791;27;20331;-74
2024/04/21 13:01:33;;;;;;;7.22;2.80;;;;;;;;;;5237403;27;20006;-75
2024/04/21 13:03:58;;;;;;;4.07;2.58;;;;;;;;;;5237940;27;20003;-75
2024/04/21 13:06:24;;;;;;;4.03;2.75;;;;;;;;;;5238844;27;20074;-75
2024/04/21 13:08:49;;;;;;;3.60;2.60;;;;;;;;;;5237787;27;20459;-76
2024/04/21 13:11:15;;;;;;;5.78;2.72;;;;;;;;;;5239505;27;20010;-74
2024/04/21 13:13:41;;;;;;;4.57;2.83;;;;;;;;;;5237423;27;20003;-75
2024/04/21 13:16:06;;;;;;;2.78;2.38;;;;;;;;;;5239273;27;20010;-72
2024/04/21 13:18:32;;;;;;;3.33;2.50;;;;;;;;;;5236900;27;20021;-75
2024/04/21 13:20:58;;;;;;;3.28;2.53;;;;;;;;;;5231586;27;20018;-73
2024/04/21 13:23:23;;;;;;;2.80;2.58;;;;;;;;;;5203833;27;20014;-76
2024/04/21 13:25:49;;;;;;;3.35;2.35;;;;;;;;;;5203293;27;20036;-76
2024/04/21 13:28:15;;;;;;;3.63;2.53;;;;;;;;;;5203369;27;20026;-75
2024/04/21 13:30:40;;;;;;;3.83;2.13;;;;;;;;;;5203405;27;20000;-75
2024/04/21 13:33:06;;;;;;;3.35;2.38;;;;;;;;;;5203309;27;20015;-77
2024/04/21 13:35:35;;;;;;;4.38;2.58;;;;;;;;;;5202912;27;20010;-76
2024/04/21 13:38:00;;;;;;;3.65;2.47;;;;;;;;;;5203419;27;20050;-76
2024/04/21 13:40:26;;;;;;;3.92;2.45;;;;;;;;;;5202784;27;20454;-76
2024/04/21 13:42:51;;;;;;;3.53;1.70;;;;;;;;;;5204819;27;20018;-75
2024/04/21 13:45:17;;;;;;;3.30;2.58;;;;;;;;;;5202290;27;20000;-77
2024/04/21 13:47:42;;;;;;;4.78;2.75;;;;;;;;;;5202888;27;20079;-75
2024/04/21 13:50:08;;;;;;;4.93;2.67;;;;;;;;;;5203013;27;20000;-76
2024/04/21 13:52:35;;;;;;;3.92;2.28;;;;;;;;;;5202591;27;20000;-75
2024/04/21 13:55:00;;;;;;;5.32;2.65;;;;;;;;;;5202694;27;20003;-75
2024/04/21 13:57:27;;;;;;;5.47;2.78;;;;;;;;;;5202509;27;19996;-76
2024/04/21 13:59:52;;;;;;;2.90;2.42;;;;;;;;;;5202598;27;20083;-75
2024/04/21 14:02:18;;;;;;;3.78;2.47;;;;;;;;;;5202445;27;20043;-76
2024/04/21 14:04:47;;;;;;;2.92;2.22;;;;;;;;;;5202963;27;20003;-76
2024/04/21 14:07:12;;;;;;;5.78;2.15;;;;;;;;;;5205400;27;20082;-76
2024/04/21 14:09:39;;;;;;;3.10;2.22;;;;;;;;;;5176167;27;20012;-75
2024/04/21 14:12:05;;;;;;;2.58;2.30;;;;;;;;;;5205347;27;20334;-76
2024/04/21 14:14:30;;;;;;;5.03;2.40;;;;;;;;;;5202661;27;20022;-74
2024/04/21 14:16:56;;;;;;;4.72;2.22;;;;;;;;;;5202562;27;20004;-77
2024/04/21 14:19:21;;;;;;;4.57;2.10;;;;;;;;;;5203758;27;20087;-75
2024/04/21 14:21:47;;;;;;;3.20;2.60;;;;;;;;;;5202386;27;20019;-77
2024/04/21 14:24:12;;;;;;;3.85;2.58;;;;;;;;;;5204458;27;20448;-76
2024/04/21 14:26:38;;;;;;;4.68;2.10;;;;;;;;;;5203128;27;20440;-77
2024/04/21 14:29:04;;;;;;;3.90;2.40;;;;;;;;;;5205429;27;20022;-77